createdAt,value
2019-02-07T00:00:58.029Z,101433.00
2019-02-07T00:03:27.418Z,101429.00
2019-02-07T00:05:57.221Z,101429.00
2019-02-07T00:08:26.889Z,101419.00
2019-02-07T00:10:56.263Z,101425.00
2019-02-07T00:13:25.754Z,101417.00
2019-02-07T00:15:55.135Z,101421.00
2019-02-07T00:18:24.531Z,101412.00
2019-02-07T00:20:54.211Z,101403.00
2019-02-07T00:23:23.584Z,101406.00
2019-02-07T00:25:52.955Z,101398.00
2019-02-07T00:28:22.623Z,101408.00
2019-02-07T00:30:52.003Z,101395.00
2019-02-07T00:33:21.392Z,101385.00
2019-02-07T00:35:51.774Z,101388.00
2019-02-07T00:38:21.161Z,101396.00
2019-02-07T00:40:50.539Z,101390.00
2019-02-07T00:43:19.920Z,101388.00
2019-02-07T00:45:49.296Z,101389.00
2019-02-07T00:48:18.747Z,101381.00
2019-02-07T00:50:49.326Z,101386.00
2019-02-07T00:53:18.723Z,101369.00
2019-02-07T00:55:48.099Z,101377.00
2019-02-07T00:58:17.501Z,101387.00
2019-02-07T01:00:46.871Z,101380.00
2019-02-07T01:03:16.243Z,101375.00
2019-02-07T01:05:45.922Z,101375.00
2019-02-07T01:08:15.281Z,101372.00
2019-02-07T01:10:44.653Z,101369.00
2019-02-07T01:13:14.374Z,101366.00
2019-02-07T01:15:43.758Z,101352.00
2019-02-07T01:18:13.211Z,101352.00
2019-02-07T01:20:42.853Z,101341.00
2019-02-07T01:23:12.330Z,101336.00
2019-02-07T01:25:41.680Z,101326.00
2019-02-07T01:28:11.362Z,101329.00
2019-02-07T01:30:40.728Z,101323.00
2019-02-07T01:33:10.094Z,101340.00
2019-02-07T01:35:39.814Z,101323.00
2019-02-07T01:38:10.526Z,101315.00
2019-02-07T01:40:39.896Z,101316.00
2019-02-07T01:43:09.331Z,101322.00
2019-02-07T01:45:38.709Z,101315.00
2019-02-07T01:48:08.126Z,101316.00
2019-02-07T01:50:37.468Z,101318.00
2019-02-07T01:53:06.825Z,101308.00
2019-02-07T01:55:36.204Z,101312.00
2019-02-07T01:58:06.392Z,101321.00
2019-02-07T02:00:35.843Z,101320.00
2019-02-07T02:03:05.288Z,101309.00
2019-02-07T02:05:34.662Z,101296.00
2019-02-07T02:08:04.364Z,101299.00
2019-02-07T02:10:33.748Z,101290.00
2019-02-07T02:13:03.208Z,101276.00
2019-02-07T02:15:32.580Z,101270.00
2019-02-07T02:18:01.962Z,101280.00
2019-02-07T02:20:31.544Z,101273.00
2019-02-07T02:23:00.997Z,101268.00
2019-02-07T02:25:30.368Z,101264.00
2019-02-07T02:27:59.821Z,101267.00
2019-02-07T02:30:35.527Z,101260.00
2019-02-07T02:33:05.885Z,101248.00
2019-02-07T02:35:35.548Z,101247.00
2019-02-07T02:38:04.917Z,101233.00
2019-02-07T02:40:35.308Z,101238.00
2019-02-07T02:43:04.705Z,101241.00
2019-02-07T02:45:37.567Z,101238.00
2019-02-07T02:48:05.831Z,101238.00
2019-02-07T02:50:35.214Z,101227.00
2019-02-07T02:53:04.649Z,101222.00
2019-02-07T02:55:35.725Z,101215.00
2019-02-07T02:58:07.237Z,101219.00
2019-02-07T03:00:47.564Z,101210.00
2019-02-07T03:03:18.707Z,101203.00
2019-02-07T03:05:55.705Z,101204.00
2019-02-07T03:08:36.125Z,101205.00
2019-02-07T03:11:07.497Z,101213.00
2019-02-07T03:13:55.247Z,101206.00
2019-02-07T03:16:42.283Z,101195.00
2019-02-07T03:19:29.382Z,101206.00
2019-02-07T03:22:16.602Z,101195.00
2019-02-07T03:25:04.243Z,101191.00
2019-02-07T03:27:37.941Z,101177.00
2019-02-07T03:30:31.985Z,101189.00
2019-02-07T03:33:03.003Z,101174.00
2019-02-07T03:35:39.777Z,101174.00
2019-02-07T03:38:16.988Z,101166.00
2019-02-07T03:40:54.282Z,101164.00
2019-02-07T03:43:42.016Z,101162.00
2019-02-07T03:46:25.583Z,101167.00
2019-02-07T03:48:56.598Z,101160.00
2019-02-07T03:51:33.590Z,101158.00
2019-02-07T03:54:07.492Z,101156.00
2019-02-07T03:56:41.201Z,101152.00
2019-02-07T03:59:28.988Z,101145.00
2019-02-07T04:02:08.977Z,101153.00
2019-02-07T04:04:56.742Z,101151.00
2019-02-07T04:07:43.928Z,101140.00
2019-02-07T04:10:18.211Z,101149.00
2019-02-07T04:12:51.915Z,101144.00
2019-02-07T04:15:38.328Z,101150.00
2019-02-07T04:18:21.546Z,101146.00
2019-02-07T04:21:01.805Z,101138.00
2019-02-07T04:23:32.778Z,101145.00
2019-02-07T04:26:20.268Z,101131.00
2019-02-07T04:29:09.492Z,101127.00
2019-02-07T04:31:52.324Z,101128.00
2019-02-07T04:34:23.363Z,101117.00
2019-02-07T04:37:04.029Z,101116.00
2019-02-07T04:39:51.493Z,101122.00
2019-02-07T04:42:22.512Z,101113.00
2019-02-07T04:45:03.342Z,101107.00
2019-02-07T04:47:50.782Z,101095.00
2019-02-07T04:50:33.751Z,101100.00
2019-02-07T04:53:11.233Z,101091.00
2019-02-07T04:55:48.034Z,101089.00
2019-02-07T04:58:25.072Z,101087.00
2019-02-07T05:00:56.094Z,101079.00
2019-02-07T05:03:43.745Z,101076.00
2019-02-07T05:06:14.788Z,101070.00
2019-02-07T05:08:52.323Z,101060.00
2019-02-07T05:11:29.330Z,101051.00
2019-02-07T05:14:06.595Z,101066.00
2019-02-07T05:16:46.404Z,101064.00
2019-02-07T05:19:17.438Z,101067.00
2019-02-07T05:22:05.077Z,101068.00
2019-02-07T05:24:36.386Z,101017.00
2019-02-07T05:27:07.562Z,101052.00
2019-02-07T05:29:41.237Z,101052.00
2019-02-07T05:32:15.534Z,101047.00
2019-02-07T05:34:55.587Z,101040.00
2019-02-07T05:37:29.342Z,101035.00
2019-02-07T05:40:00.426Z,101035.00
2019-02-07T05:42:31.855Z,101026.00
2019-02-07T05:45:18.687Z,101033.00
2019-02-07T05:47:50.713Z,101026.00
2019-02-07T05:50:38.329Z,101028.00
2019-02-07T05:53:17.935Z,101030.00
2019-02-07T05:56:05.570Z,101019.00
2019-02-07T05:58:53.295Z,101025.00
2019-02-07T06:01:40.137Z,101019.00
2019-02-07T06:04:27.367Z,101015.00
2019-02-07T06:07:04.571Z,101022.00
2019-02-07T06:09:50.832Z,101027.00
2019-02-07T06:12:28.531Z,101022.00
2019-02-07T06:15:15.845Z,100992.00
2019-02-07T06:18:05.016Z,101004.00
2019-02-07T06:20:36.041Z,101005.00
2019-02-07T06:23:19.359Z,101011.00
2019-02-07T06:25:53.266Z,101003.00
2019-02-07T06:28:27.261Z,100996.00
2019-02-07T06:31:13.318Z,100994.00
2019-02-07T06:33:47.312Z,100984.00
2019-02-07T06:36:23.986Z,100981.00
2019-02-07T06:38:57.696Z,100989.00
2019-02-07T06:41:37.699Z,100990.00
2019-02-07T06:44:17.859Z,100972.00
2019-02-07T06:46:49.228Z,100978.00
2019-02-07T06:49:24.959Z,100980.00
2019-02-07T06:52:01.727Z,100984.00
2019-02-07T06:54:47.676Z,100982.00
2019-02-07T06:57:21.359Z,100965.00
2019-02-07T06:59:55.503Z,100971.00
2019-02-07T07:02:42.925Z,100958.00
2019-02-07T07:05:23.618Z,100957.00
2019-02-07T07:07:54.636Z,100913.00
2019-02-07T07:10:34.071Z,100958.00
2019-02-07T07:13:21.131Z,100954.00
2019-02-07T07:15:54.800Z,100955.00
2019-02-07T07:18:31.573Z,100959.00
2019-02-07T07:21:02.656Z,100950.00
2019-02-07T07:23:49.981Z,100954.00
2019-02-07T07:26:23.910Z,100953.00
2019-02-07T07:29:00.917Z,100957.00
2019-02-07T07:31:32.216Z,100965.00
2019-02-07T07:34:03.240Z,100949.00
2019-02-07T07:36:34.346Z,100943.00
2019-02-07T07:39:10.100Z,100945.00
2019-02-07T07:41:57.481Z,100952.00
2019-02-07T07:44:28.534Z,100947.00
2019-02-07T07:47:08.590Z,100959.00
2019-02-07T07:49:43.486Z,100943.00
2019-02-07T07:52:32.702Z,100933.00
2019-02-07T07:55:10.212Z,100931.00
2019-02-07T07:57:53.001Z,100927.00
2019-02-07T08:00:29.548Z,100922.00
2019-02-07T08:03:16.718Z,100917.00
2019-02-07T08:05:53.962Z,100918.00
2019-02-07T08:08:41.161Z,100910.00
2019-02-07T08:11:12.898Z,100914.00
2019-02-07T08:13:43.920Z,100891.00
2019-02-07T08:16:15.441Z,100886.00
2019-02-07T08:18:55.730Z,100895.00
2019-02-07T08:21:26.774Z,100897.00
2019-02-07T08:24:04.156Z,100893.00
2019-02-07T08:26:47.862Z,100882.00
2019-02-07T08:29:19.244Z,100879.00
2019-02-07T08:31:56.437Z,100877.00
2019-02-07T08:34:39.493Z,100874.00
2019-02-07T08:37:26.904Z,100876.00
2019-02-07T08:40:14.059Z,100864.00
2019-02-07T08:43:03.374Z,100860.00
2019-02-07T08:45:40.764Z,100867.00
2019-02-07T08:48:28.354Z,100856.00
2019-02-07T08:51:05.607Z,100845.00
2019-02-07T08:53:52.942Z,100824.00
2019-02-07T08:56:36.279Z,100835.00
2019-02-07T08:59:19.945Z,100833.00
2019-02-07T09:01:57.268Z,100834.00
2019-02-07T09:04:45.124Z,100819.00
2019-02-07T09:07:25.145Z,100834.00
2019-02-07T09:10:12.478Z,100830.00
2019-02-07T09:12:43.510Z,100819.00
2019-02-07T09:15:29.613Z,100826.00
2019-02-07T09:18:13.406Z,100814.00
2019-02-07T09:20:59.757Z,100820.00
2019-02-07T09:23:42.532Z,100801.00
2019-02-07T09:26:13.834Z,100799.00
2019-02-07T09:28:47.573Z,100796.00
2019-02-07T09:31:30.650Z,100793.00
2019-02-07T09:34:01.670Z,100795.00
2019-02-07T09:36:42.612Z,100790.00
2019-02-07T09:39:16.657Z,100790.00
2019-02-07T09:41:53.664Z,100787.00
2019-02-07T09:44:30.413Z,100791.00
2019-02-07T09:47:07.419Z,100789.00
2019-02-07T09:49:50.858Z,100788.00
2019-02-07T09:52:28.615Z,100787.00
2019-02-07T09:55:08.638Z,100788.00
2019-02-07T09:57:39.684Z,100781.00
2019-02-07T10:00:18.416Z,100787.00
2019-02-07T10:02:54.871Z,100793.00
2019-02-07T10:05:42.088Z,100798.00
2019-02-07T10:08:18.621Z,100793.00
2019-02-07T10:10:58.936Z,100776.00
2019-02-07T10:13:29.968Z,100774.00
2019-02-07T10:16:03.967Z,100778.00
2019-02-07T10:18:51.581Z,100759.00
2019-02-07T10:21:40.803Z,100767.00
2019-02-07T10:24:12.382Z,100753.00
2019-02-07T10:26:59.523Z,100762.00
2019-02-07T10:29:36.693Z,100766.00
2019-02-07T10:32:26.465Z,100756.00
2019-02-07T10:35:00.635Z,100750.00
2019-02-07T10:37:46.583Z,100738.00
2019-02-07T10:40:18.936Z,100736.00
2019-02-07T10:42:49.958Z,100722.00
2019-02-07T10:45:39.414Z,100704.00
2019-02-07T10:48:16.185Z,100715.00
2019-02-07T10:50:47.193Z,100712.00
2019-02-07T10:53:20.860Z,100717.00
2019-02-07T10:55:58.630Z,100716.00
2019-02-07T10:58:30.499Z,100704.00
2019-02-07T11:01:01.837Z,100705.00
2019-02-07T11:03:46.451Z,100696.00
2019-02-07T11:06:32.817Z,100687.00
2019-02-07T11:09:12.927Z,100680.00
2019-02-07T11:11:44.318Z,100681.00
2019-02-07T11:14:20.979Z,100658.00
2019-02-07T11:17:04.736Z,100661.00
2019-02-07T11:19:35.755Z,100676.00
2019-02-07T11:22:23.220Z,100664.00
2019-02-07T11:24:54.239Z,100657.00
2019-02-07T11:27:28.175Z,100654.00
2019-02-07T11:30:08.208Z,100658.00
2019-02-07T11:32:41.890Z,100646.00
2019-02-07T11:35:12.920Z,100644.00
2019-02-07T11:37:47.208Z,100629.00
2019-02-07T11:40:24.430Z,100628.00
2019-02-07T11:42:55.462Z,100619.00
2019-02-07T11:45:29.178Z,100616.00
2019-02-07T11:48:05.896Z,100617.00
2019-02-07T11:50:39.582Z,100614.00
2019-02-07T11:53:10.610Z,100605.00
2019-02-07T11:55:48.379Z,100608.00
2019-02-07T11:58:29.756Z,100609.00
2019-02-07T12:01:03.703Z,100601.00
2019-02-07T12:03:51.455Z,100599.00
2019-02-07T12:06:25.298Z,100594.00
2019-02-07T12:08:57.617Z,100590.00
2019-02-07T12:11:44.807Z,100580.00
2019-02-07T12:14:33.863Z,100596.00
2019-02-07T12:17:22.435Z,100613.00
2019-02-07T12:19:52.663Z,100592.00
2019-02-07T12:22:29.622Z,100600.00
2019-02-07T12:25:03.326Z,100595.00
2019-02-07T12:27:46.982Z,100593.00
2019-02-07T12:30:20.717Z,100592.00
2019-02-07T12:32:56.286Z,100583.00
2019-02-07T12:35:27.307Z,100603.00
2019-02-07T12:38:04.070Z,100605.00
2019-02-07T12:40:53.384Z,100582.00
2019-02-07T12:43:24.423Z,100576.00
2019-02-07T12:45:58.469Z,100581.00
2019-02-07T12:48:41.524Z,100589.00
2019-02-07T12:51:28.518Z,100566.00
2019-02-07T12:54:14.670Z,100567.00
2019-02-07T12:57:01.806Z,100570.00
2019-02-07T12:59:51.376Z,100563.00
2019-02-07T13:02:26.424Z,100563.00
2019-02-07T13:05:13.851Z,100553.00
2019-02-07T13:07:54.799Z,100548.00
2019-02-07T13:10:31.459Z,100547.00
2019-02-07T13:13:09.740Z,100535.00
2019-02-07T13:15:52.972Z,100534.00
2019-02-07T13:18:26.667Z,100526.00
2019-02-07T13:21:13.412Z,100523.00
2019-02-07T13:23:53.515Z,100542.00
2019-02-07T13:26:27.509Z,100550.00
2019-02-07T13:28:58.519Z,100541.00
2019-02-07T13:31:32.433Z,100546.00
2019-02-07T13:34:11.086Z,100556.00
2019-02-07T13:36:48.036Z,100547.00
2019-02-07T13:39:22.523Z,100546.00
2019-02-07T13:41:56.512Z,100556.00
2019-02-07T13:44:27.543Z,100565.00
2019-02-07T13:47:01.489Z,100555.00
2019-02-07T13:49:32.512Z,100561.00
2019-02-07T13:52:09.466Z,100572.00
2019-02-07T13:54:40.492Z,100570.00
2019-02-07T13:57:27.948Z,100572.00
2019-02-07T14:00:14.040Z,100571.00
2019-02-07T14:02:57.470Z,100569.00
2019-02-07T14:05:31.403Z,100575.00
2019-02-07T14:08:14.470Z,100572.00
2019-02-07T14:10:57.391Z,100568.00
2019-02-07T14:13:28.616Z,100592.00
2019-02-07T14:16:08.900Z,100589.00
2019-02-07T14:18:40.203Z,100561.00
2019-02-07T14:21:14.160Z,100571.00
2019-02-07T14:23:57.444Z,100582.00
2019-02-07T14:26:28.470Z,100580.00
2019-02-07T14:28:59.767Z,100579.00
2019-02-07T14:31:31.474Z,100593.00
2019-02-07T14:34:02.495Z,100583.00
2019-02-07T14:36:49.642Z,100569.00
2019-02-07T14:39:37.279Z,100577.00
2019-02-07T14:42:10.999Z,100582.00
2019-02-07T14:44:58.689Z,100586.00
2019-02-07T14:47:28.756Z,100579.00
2019-02-07T14:49:58.166Z,100592.00
2019-02-07T14:52:27.560Z,100587.00
2019-02-07T14:54:57.576Z,100580.00
2019-02-07T14:57:27.054Z,100562.00
2019-02-07T14:59:56.815Z,100555.00
2019-02-07T15:02:26.217Z,100560.00
2019-02-07T15:04:56.621Z,100563.00
2019-02-07T15:07:26.012Z,100556.00
2019-02-07T15:09:55.460Z,100565.00
2019-02-07T15:12:24.846Z,100569.00
2019-02-07T15:14:54.506Z,100565.00
2019-02-07T15:17:23.919Z,100559.00
2019-02-07T15:19:53.315Z,100540.00
2019-02-07T15:22:22.707Z,100543.00
2019-02-07T15:24:52.114Z,100546.00
2019-02-07T15:27:21.762Z,100539.00
2019-02-07T15:29:51.441Z,100528.00
2019-02-07T15:32:21.386Z,100542.00
2019-02-07T15:34:53.738Z,100546.00
2019-02-07T15:37:21.934Z,100561.00
2019-02-07T15:39:51.535Z,100566.00
2019-02-07T15:42:21.103Z,100570.00
2019-02-07T15:44:50.862Z,100566.00
2019-02-07T15:47:20.334Z,100572.00
2019-02-07T15:49:49.715Z,100569.00
2019-02-07T15:52:19.275Z,100560.00
2019-02-07T15:54:48.915Z,100574.00
2019-02-07T15:57:18.298Z,100580.00
2019-02-07T15:59:49.502Z,100574.00
2019-02-07T16:02:18.911Z,100554.00
2019-02-07T16:04:48.288Z,100548.00
2019-02-07T16:07:17.822Z,100541.00
2019-02-07T16:09:47.287Z,100547.00
2019-02-07T16:12:16.688Z,100576.00
2019-02-07T16:14:46.355Z,100569.00
2019-02-07T16:17:16.262Z,100565.00
2019-02-07T16:19:45.644Z,100568.00
2019-02-07T16:22:34.388Z,100561.00
2019-02-07T16:25:06.088Z,100574.00
2019-02-07T16:27:35.500Z,100574.00
2019-02-07T16:30:12.135Z,100572.00
2019-02-07T16:32:41.517Z,100561.00
2019-02-07T16:35:14.201Z,100567.00
2019-02-07T16:37:44.177Z,100575.00
2019-02-07T16:40:16.669Z,100587.00
2019-02-07T16:42:46.040Z,100571.00
2019-02-07T16:45:27.027Z,100581.00
2019-02-07T16:47:56.398Z,100578.00
2019-02-07T16:50:34.118Z,100578.00
2019-02-07T16:53:03.499Z,100588.00
2019-02-07T16:55:33.035Z,100582.00
2019-02-07T16:58:02.858Z,100594.00
2019-02-07T17:00:35.661Z,100580.00
2019-02-07T17:03:07.160Z,100577.00
2019-02-07T17:05:37.978Z,100601.00
2019-02-07T17:08:07.907Z,100605.00
2019-02-07T17:10:40.316Z,100619.00
2019-02-07T17:13:13.194Z,100622.00
2019-02-07T17:15:42.814Z,100618.00
2019-02-07T17:18:12.263Z,100620.00
2019-02-07T17:20:41.653Z,100614.00
2019-02-07T17:23:11.034Z,100614.00
2019-02-07T17:25:40.501Z,100608.00
2019-02-07T17:28:09.903Z,100617.00
2019-02-07T17:30:39.356Z,100627.00
2019-02-07T17:33:08.751Z,100632.00
2019-02-07T17:35:38.289Z,100634.00
2019-02-07T17:38:07.671Z,100632.00
2019-02-07T17:40:37.049Z,100631.00
2019-02-07T17:43:06.529Z,100639.00
2019-02-07T17:45:35.974Z,100635.00
2019-02-07T17:48:06.191Z,100636.00
2019-02-07T17:50:37.684Z,100634.00
2019-02-07T17:53:10.539Z,100624.00
2019-02-07T17:55:39.912Z,100629.00
2019-02-07T17:58:10.808Z,100639.00
2019-02-07T18:00:54.959Z,100643.00
2019-02-07T18:03:24.645Z,100642.00
2019-02-07T18:05:54.114Z,100652.00
2019-02-07T18:08:23.645Z,100651.00
2019-02-07T18:10:53.481Z,100647.00
2019-02-07T18:13:23.045Z,100648.00
2019-02-07T18:15:52.442Z,100655.00
2019-02-07T18:18:22.128Z,100671.00
2019-02-07T18:20:51.518Z,100666.00
2019-02-07T18:23:20.968Z,100666.00
2019-02-07T18:25:50.533Z,100659.00
2019-02-07T18:28:20.225Z,100679.00
2019-02-07T18:30:49.623Z,100678.00
2019-02-07T18:33:19.004Z,100672.00
2019-02-07T18:35:48.402Z,100678.00
2019-02-07T18:38:17.787Z,100677.00
2019-02-07T18:40:47.597Z,100670.00
2019-02-07T18:43:16.975Z,100665.00
2019-02-07T18:45:46.433Z,100672.00
2019-02-07T18:48:15.833Z,100656.00
2019-02-07T18:50:45.219Z,100652.00
2019-02-07T18:53:14.598Z,100655.00
2019-02-07T18:55:44.479Z,100656.00
2019-02-07T18:58:13.871Z,100661.00
2019-02-07T19:00:43.331Z,100664.00
2019-02-07T19:03:12.997Z,100671.00
2019-02-07T19:05:42.383Z,100669.00
2019-02-07T19:08:11.834Z,100675.00
2019-02-07T19:10:41.759Z,100675.00
2019-02-07T19:13:11.208Z,100672.00
2019-02-07T19:15:45.545Z,100685.00
2019-02-07T19:18:15.527Z,100693.00
2019-02-07T19:20:44.970Z,100683.00
2019-02-07T19:23:14.395Z,100691.00
2019-02-07T19:25:44.010Z,100698.00
2019-02-07T19:28:13.497Z,100705.00
2019-02-07T19:30:42.865Z,100700.00
2019-02-07T19:33:12.268Z,100702.00
2019-02-07T19:35:41.652Z,100696.00
2019-02-07T19:38:11.034Z,100698.00
2019-02-07T19:40:41.240Z,100691.00
2019-02-07T19:43:10.661Z,100710.00
2019-02-07T19:45:40.025Z,100698.00
2019-02-07T19:48:09.467Z,100709.00
2019-02-07T19:50:38.848Z,100703.00
2019-02-07T19:53:08.228Z,100684.00
2019-02-07T19:55:39.305Z,100682.00
2019-02-07T19:58:11.682Z,100704.00
2019-02-07T20:00:41.149Z,100700.00
2019-02-07T20:03:10.887Z,100703.00
2019-02-07T20:05:40.345Z,100706.00
2019-02-07T20:08:09.798Z,100702.00
2019-02-07T20:10:39.383Z,100701.00
2019-02-07T20:13:08.771Z,100698.00
2019-02-07T20:15:41.948Z,100697.00
2019-02-07T20:18:13.136Z,100704.00
2019-02-07T20:20:42.595Z,100696.00
2019-02-07T20:23:12.042Z,100703.00
2019-02-07T20:25:41.837Z,100706.00
2019-02-07T20:28:11.396Z,100716.00
2019-02-07T20:30:44.243Z,100726.00
2019-02-07T20:33:13.641Z,100719.00
2019-02-07T20:35:43.041Z,100727.00
2019-02-07T20:38:12.416Z,100738.00
2019-02-07T20:40:42.478Z,100723.00
2019-02-07T20:43:11.857Z,100733.00
2019-02-07T20:45:41.241Z,100724.00
2019-02-07T20:48:10.770Z,100743.00
2019-02-07T20:50:40.164Z,100739.00
2019-02-07T20:53:10.431Z,100733.00
2019-02-07T20:55:39.883Z,100747.00
2019-02-07T20:58:09.631Z,100742.00
2019-02-07T21:00:40.540Z,100739.00
2019-02-07T21:03:10.556Z,100750.00
2019-02-07T21:05:40.004Z,100752.00
2019-02-07T21:08:09.441Z,100758.00
2019-02-07T21:10:39.961Z,100755.00
2019-02-07T21:13:09.769Z,100746.00
2019-02-07T21:15:39.113Z,100764.00
2019-02-07T21:18:08.514Z,100761.00
2019-02-07T21:20:38.717Z,100767.00
2019-02-07T21:23:08.291Z,100766.00
2019-02-07T21:25:50.670Z,100768.00
2019-02-07T21:28:20.338Z,100760.00
2019-02-07T21:30:49.733Z,100778.00
2019-02-07T21:33:19.135Z,100766.00
2019-02-07T21:35:48.524Z,100768.00
2019-02-07T21:38:17.902Z,100766.00
2019-02-07T21:40:47.315Z,100771.00
2019-02-07T21:43:16.978Z,100776.00
2019-02-07T21:45:46.678Z,100768.00
2019-02-07T21:48:16.121Z,100772.00
2019-02-07T21:50:45.510Z,100778.00
2019-02-07T21:53:15.906Z,100782.00
2019-02-07T21:55:45.314Z,100790.00
2019-02-07T21:58:15.092Z,100792.00
2019-02-07T22:00:46.597Z,100789.00
2019-02-07T22:03:16.249Z,100791.00
2019-02-07T22:05:45.886Z,100797.00
2019-02-07T22:08:15.261Z,100803.00
2019-02-07T22:10:45.054Z,100796.00
2019-02-07T22:13:14.715Z,100797.00
2019-02-07T22:15:44.093Z,100796.00
2019-02-07T22:18:13.480Z,100803.00
2019-02-07T22:20:42.870Z,100807.00
2019-02-07T22:23:12.554Z,100795.00
2019-02-07T22:25:41.972Z,100800.00
2019-02-07T22:28:11.877Z,100800.00
2019-02-07T22:30:41.929Z,100797.00
2019-02-07T22:33:11.523Z,100799.00
2019-02-07T22:35:40.905Z,100811.00
2019-02-07T22:38:10.423Z,100803.00
2019-02-07T22:40:39.820Z,100812.00
2019-02-07T22:43:10.005Z,100799.00
2019-02-07T22:45:39.398Z,100813.00
2019-02-07T22:48:08.880Z,100818.00
2019-02-07T22:50:38.764Z,100813.00
2019-02-07T22:53:08.149Z,100824.00
2019-02-07T22:55:37.908Z,100830.00
2019-02-07T22:58:07.839Z,100833.00
2019-02-07T23:00:45.123Z,100822.00
2019-02-07T23:03:19.546Z,100828.00
2019-02-07T23:05:48.946Z,100835.00
2019-02-07T23:08:18.597Z,100832.00
2019-02-07T23:10:48.351Z,100831.00
2019-02-07T23:13:17.747Z,100839.00
2019-02-07T23:15:47.964Z,100846.00
2019-02-07T23:18:17.419Z,100849.00
2019-02-07T23:20:46.809Z,100849.00
2019-02-07T23:23:16.211Z,100848.00
2019-02-07T23:25:46.795Z,100844.00
2019-02-07T23:28:16.171Z,100837.00
2019-02-07T23:30:45.637Z,100843.00
2019-02-07T23:33:15.021Z,100843.00
2019-02-07T23:35:44.492Z,100825.00
2019-02-07T23:38:13.912Z,100843.00
2019-02-07T23:40:43.290Z,100844.00
2019-02-07T23:43:12.742Z,100833.00
2019-02-07T23:45:42.142Z,100837.00
2019-02-07T23:48:11.520Z,100853.00
2019-02-07T23:50:41.307Z,100858.00
2019-02-07T23:53:14.802Z,100858.00
2019-02-07T23:55:41.817Z,100863.00
2019-02-07T23:58:11.278Z,100853.00
